createdAt,value
2022-10-17T00:02:27.476Z,99.90
2022-10-17T00:04:55.492Z,99.90
2022-10-17T00:07:23.520Z,99.90
2022-10-17T00:09:52.928Z,99.90
2022-10-17T00:12:21.018Z,99.90
2022-10-17T00:14:49.211Z,99.90
2022-10-17T00:17:17.296Z,99.90
2022-10-17T00:19:45.307Z,99.90
2022-10-17T00:22:14.158Z,99.90
2022-10-17T00:24:42.185Z,99.90
2022-10-17T00:27:11.621Z,99.90
2022-10-17T00:29:39.646Z,99.90
2022-10-17T00:32:07.773Z,99.90
2022-10-17T00:34:35.964Z,99.90
2022-10-17T00:37:03.970Z,99.90
2022-10-17T00:39:31.995Z,99.90
2022-10-17T00:42:00.032Z,99.90
2022-10-17T00:45:01.291Z,99.90
2022-10-17T00:47:30.338Z,99.90
2022-10-17T00:49:59.412Z,99.90
2022-10-17T00:52:30.176Z,99.90
2022-10-17T00:55:01.722Z,99.90
2022-10-17T00:57:32.679Z,99.90
2022-10-17T01:00:11.920Z,99.90
2022-10-17T01:02:40.383Z,99.90
2022-10-17T01:05:10.123Z,99.90
2022-10-17T01:07:39.155Z,99.90
2022-10-17T01:10:09.047Z,99.90
2022-10-17T01:12:49.712Z,99.90
2022-10-17T01:15:42.009Z,99.90
2022-10-17T01:18:20.770Z,99.90
2022-10-17T01:21:09.474Z,99.90
2022-10-17T01:24:10.782Z,99.90
2022-10-17T01:26:56.858Z,99.90
2022-10-17T01:29:53.478Z,99.90
2022-10-17T01:32:35.570Z,99.90
2022-10-17T01:35:10.594Z,99.90
2022-10-17T01:37:47.467Z,99.90
2022-10-17T01:40:20.207Z,99.90
2022-10-17T01:42:56.369Z,99.90
2022-10-17T01:45:30.879Z,99.90
2022-10-17T01:48:04.829Z,99.90
2022-10-17T01:50:37.322Z,99.90
2022-10-17T01:53:09.929Z,99.90
2022-10-17T01:55:40.972Z,99.90
2022-10-17T01:58:13.484Z,99.90
2022-10-17T02:00:43.899Z,99.90
2022-10-17T02:03:18.345Z,99.90
2022-10-17T02:05:46.868Z,99.90
2022-10-17T02:08:15.705Z,99.90
2022-10-17T02:10:48.367Z,99.90
2022-10-17T02:13:28.373Z,99.90
2022-10-17T02:16:14.007Z,99.90
2022-10-17T02:18:50.482Z,99.90
2022-10-17T02:21:26.382Z,99.90
2022-10-17T02:24:01.560Z,99.90
2022-10-17T02:26:35.024Z,99.90
2022-10-17T02:29:08.781Z,99.90
2022-10-17T02:31:41.140Z,99.90
2022-10-17T02:34:15.585Z,99.90
2022-10-17T02:36:48.813Z,99.90
2022-10-17T02:39:17.949Z,99.90
2022-10-17T02:41:47.129Z,99.90
2022-10-17T02:44:16.285Z,99.90
2022-10-17T02:46:50.535Z,99.90
2022-10-17T02:49:24.934Z,99.90
2022-10-17T02:52:01.263Z,99.90
2022-10-17T02:54:37.140Z,99.90
2022-10-17T02:57:09.990Z,99.90
2022-10-17T02:59:41.397Z,99.90
2022-10-17T03:02:11.974Z,99.90
2022-10-17T03:04:44.515Z,99.90
2022-10-17T03:07:12.539Z,99.90
2022-10-17T03:09:40.628Z,99.90
2022-10-17T03:12:08.763Z,99.90
2022-10-17T03:14:36.817Z,99.90
2022-10-17T03:17:04.872Z,99.90
2022-10-17T03:19:32.988Z,99.90
2022-10-17T03:22:02.626Z,99.90
2022-10-17T03:24:30.594Z,99.90
2022-10-17T03:26:58.578Z,99.90
2022-10-17T03:29:26.687Z,99.90
2022-10-17T03:31:54.721Z,99.90
2022-10-17T03:34:23.040Z,99.90
2022-10-17T03:36:51.421Z,99.90
2022-10-17T03:39:20.884Z,99.90
2022-10-17T03:41:48.883Z,99.90
2022-10-17T03:44:17.266Z,99.90
2022-10-17T03:46:45.289Z,99.90
2022-10-17T03:49:13.394Z,99.90
2022-10-17T03:51:41.414Z,99.90
2022-10-17T03:54:09.477Z,99.90
2022-10-17T03:56:39.217Z,99.90
2022-10-17T03:59:07.318Z,99.90
2022-10-17T04:01:35.354Z,99.90
2022-10-17T04:04:03.438Z,99.90
2022-10-17T04:06:31.425Z,99.90
2022-10-17T04:09:00.092Z,99.90
2022-10-17T04:11:28.079Z,99.90
2022-10-17T04:13:59.286Z,99.90
2022-10-17T04:16:27.870Z,99.90
2022-10-17T04:18:57.475Z,99.90
2022-10-17T04:21:27.016Z,99.90
2022-10-17T04:23:56.042Z,99.90
2022-10-17T04:26:24.703Z,99.90
2022-10-17T04:28:52.733Z,99.90
2022-10-17T04:31:22.409Z,99.90
2022-10-17T04:33:51.351Z,99.90
2022-10-17T04:36:20.871Z,99.90
2022-10-17T04:38:48.890Z,99.90
2022-10-17T04:41:19.213Z,99.90
2022-10-17T04:43:50.956Z,99.90
2022-10-17T04:46:21.391Z,99.90
2022-10-17T04:48:49.376Z,99.90
2022-10-17T04:51:21.788Z,99.90
2022-10-17T04:53:52.516Z,99.90
2022-10-17T04:56:22.727Z,99.90
2022-10-17T04:58:51.413Z,99.90
2022-10-17T05:01:22.806Z,99.90
2022-10-17T05:03:51.283Z,99.90
2022-10-17T05:06:21.508Z,99.90
2022-10-17T05:08:50.068Z,99.90
2022-10-17T05:11:19.728Z,99.90
2022-10-17T05:13:52.727Z,99.90
2022-10-17T05:16:22.838Z,99.90
2022-10-17T05:18:52.953Z,99.90
2022-10-17T05:21:22.481Z,99.90
2022-10-17T05:23:50.755Z,99.90
2022-10-17T05:26:19.315Z,99.90
2022-10-17T05:28:47.633Z,99.90
2022-10-17T05:31:18.033Z,99.90
2022-10-17T05:33:47.402Z,99.90
2022-10-17T05:36:15.480Z,99.90
2022-10-17T05:38:43.538Z,99.90
2022-10-17T05:41:11.869Z,99.90
2022-10-17T05:43:40.089Z,99.90
2022-10-17T05:46:08.450Z,99.90
2022-10-17T05:48:36.496Z,99.90
2022-10-17T05:51:07.794Z,99.90
2022-10-17T05:53:38.595Z,99.90
2022-10-17T05:56:09.367Z,99.90
2022-10-17T05:59:00.726Z,99.90
2022-10-17T06:01:28.881Z,99.90
2022-10-17T06:03:56.935Z,99.90
2022-10-17T06:06:26.363Z,99.90
2022-10-17T06:08:54.365Z,99.90
2022-10-17T06:11:22.387Z,99.90
2022-10-17T06:13:50.360Z,99.90
2022-10-17T06:16:18.362Z,99.90
2022-10-17T06:18:46.424Z,99.90
2022-10-17T06:21:21.164Z,99.90
2022-10-17T06:23:50.566Z,99.90
2022-10-17T06:26:18.569Z,99.90
2022-10-17T06:28:46.884Z,99.90
2022-10-17T06:31:17.604Z,99.90
2022-10-17T06:33:45.677Z,99.90
2022-10-17T06:36:15.777Z,99.90
2022-10-17T06:38:44.811Z,99.90
2022-10-17T06:41:15.803Z,99.90
2022-10-17T06:43:46.597Z,99.90
2022-10-17T06:46:14.914Z,99.90
2022-10-17T06:48:43.029Z,99.90
2022-10-17T06:51:11.644Z,99.90
2022-10-17T06:53:41.422Z,99.90
2022-10-17T06:56:10.969Z,99.90
2022-10-17T06:58:42.276Z,99.90
2022-10-17T07:01:12.409Z,99.90
2022-10-17T07:03:41.717Z,99.90
2022-10-17T07:06:10.949Z,99.90
2022-10-17T07:08:39.325Z,99.90
2022-10-17T07:11:11.452Z,99.90
2022-10-17T07:13:41.177Z,99.90
2022-10-17T07:16:09.893Z,99.90
2022-10-17T07:18:38.689Z,99.90
2022-10-17T07:21:08.543Z,99.90
2022-10-17T07:23:37.772Z,99.90
2022-10-17T07:26:08.646Z,99.90
2022-10-17T07:28:37.891Z,99.90
2022-10-17T07:31:11.262Z,99.90
2022-10-17T07:33:39.549Z,99.90
2022-10-17T07:36:08.188Z,99.90
2022-10-17T07:38:37.247Z,99.50
2022-10-17T07:41:07.815Z,99.30
2022-10-17T07:43:37.562Z,99.80
2022-10-17T07:46:08.330Z,99.50
2022-10-17T07:48:36.490Z,99.00
2022-10-17T07:51:05.558Z,98.80
2022-10-17T07:53:33.702Z,98.50
2022-10-17T07:56:06.593Z,98.20
2022-10-17T07:58:34.921Z,97.80
2022-10-17T08:01:03.722Z,97.40
2022-10-17T08:03:33.377Z,97.00
2022-10-17T08:06:02.719Z,96.80
2022-10-17T08:08:31.043Z,96.00
2022-10-17T08:11:04.209Z,95.80
2022-10-17T08:13:32.564Z,95.20
2022-10-17T08:16:01.907Z,94.60
2022-10-17T08:18:30.301Z,93.90
2022-10-17T08:21:02.494Z,93.80
2022-10-17T08:23:30.900Z,93.40
2022-10-17T08:26:00.891Z,92.50
2022-10-17T08:28:29.206Z,92.80
2022-10-17T08:31:04.242Z,93.00
2022-10-17T08:33:33.192Z,92.40
2022-10-17T08:36:03.340Z,92.30
2022-10-17T08:38:35.359Z,91.30
2022-10-17T08:41:08.438Z,91.80
2022-10-17T08:43:50.989Z,92.20
2022-10-17T08:46:20.465Z,91.80
2022-10-17T08:48:50.522Z,91.20
2022-10-17T08:51:24.201Z,91.50
2022-10-17T08:53:57.275Z,91.50
2022-10-17T08:59:21.333Z,91.80
2022-10-17T09:01:54.550Z,91.60
2022-10-17T09:04:53.759Z,91.00
2022-10-17T09:07:29.061Z,90.90
2022-10-17T09:10:08.325Z,90.20
2022-10-17T09:12:44.984Z,89.70
2022-10-17T09:15:38.045Z,88.40
2022-10-17T09:18:13.226Z,89.80
2022-10-17T09:20:46.698Z,88.10
2022-10-17T09:23:20.928Z,88.40
2022-10-17T09:25:51.784Z,88.10
2022-10-17T09:28:24.797Z,88.20
2022-10-17T09:31:00.598Z,88.30
2022-10-17T09:33:53.404Z,87.20
2022-10-17T09:36:25.970Z,85.50
2022-10-17T09:38:56.997Z,87.40
2022-10-17T09:41:45.898Z,86.90
2022-10-17T09:44:22.451Z,86.40
2022-10-17T09:47:10.405Z,85.90
2022-10-17T09:49:40.005Z,84.80
2022-10-17T09:52:15.799Z,85.00
2022-10-17T09:54:49.815Z,83.90
2022-10-17T09:57:19.417Z,84.30
2022-10-17T09:59:49.596Z,81.90
2022-10-17T10:02:20.843Z,82.40
2022-10-17T10:05:08.746Z,83.50
2022-10-17T10:07:38.985Z,83.50
2022-10-17T10:10:27.784Z,83.60
2022-10-17T10:13:08.457Z,85.30
2022-10-17T10:15:41.048Z,85.00
2022-10-17T10:21:09.462Z,84.30
2022-10-17T10:23:40.120Z,87.40
2022-10-17T10:26:25.408Z,88.40
2022-10-17T10:28:58.251Z,89.00
2022-10-17T10:31:36.713Z,89.60
2022-10-17T10:34:16.714Z,90.30
2022-10-17T10:36:52.132Z,90.40
2022-10-17T10:39:46.881Z,91.00
2022-10-17T10:42:38.622Z,91.20
2022-10-17T10:45:29.429Z,91.60
2022-10-17T10:48:06.221Z,92.10
2022-10-17T10:50:40.580Z,92.70
2022-10-17T10:53:25.885Z,92.80
2022-10-17T10:55:57.472Z,93.30
2022-10-17T10:58:38.887Z,93.00
2022-10-17T11:01:18.490Z,93.10
2022-10-17T11:04:13.242Z,93.50
2022-10-17T11:06:45.153Z,93.90
2022-10-17T11:09:23.867Z,93.70
2022-10-17T11:11:57.525Z,93.80
2022-10-17T11:14:36.797Z,94.70
2022-10-17T11:17:11.599Z,95.10
2022-10-17T11:19:45.559Z,94.70
2022-10-17T11:22:17.440Z,95.50
2022-10-17T11:24:56.818Z,96.20
2022-10-17T11:27:25.358Z,96.70
2022-10-17T11:29:54.716Z,97.00
2022-10-17T11:32:28.662Z,96.90
2022-10-17T11:35:04.858Z,96.90
2022-10-17T11:37:38.392Z,97.60
2022-10-17T11:40:21.903Z,97.60
2022-10-17T11:42:56.441Z,97.70
2022-10-17T11:45:29.712Z,97.80
2022-10-17T11:48:03.457Z,98.00
2022-10-17T11:53:25.960Z,98.20
2022-10-17T11:55:57.549Z,98.20
2022-10-17T11:58:36.662Z,97.30
2022-10-17T12:01:14.434Z,97.50
2022-10-17T12:04:12.673Z,97.40
2022-10-17T12:06:56.742Z,98.30
2022-10-17T12:09:32.088Z,98.50
2022-10-17T12:12:02.499Z,98.20
2022-10-17T12:14:39.544Z,98.60
2022-10-17T12:17:26.696Z,98.50
2022-10-17T12:19:56.218Z,98.80
2022-10-17T12:22:26.305Z,99.10
2022-10-17T12:24:57.609Z,98.60
2022-10-17T12:27:43.549Z,99.00
2022-10-17T12:30:21.625Z,98.30
2022-10-17T12:33:07.798Z,99.20
2022-10-17T12:35:38.725Z,99.90
2022-10-17T12:38:28.222Z,99.00
2022-10-17T12:41:03.806Z,98.30
2022-10-17T12:43:58.778Z,98.90
2022-10-17T12:46:46.592Z,98.90
2022-10-17T12:49:39.317Z,98.60
2022-10-17T12:52:26.474Z,97.80
2022-10-17T12:55:12.672Z,98.30
2022-10-17T12:57:55.853Z,98.20
2022-10-17T13:00:29.274Z,99.10
2022-10-17T13:03:04.441Z,98.90
2022-10-17T13:05:39.561Z,99.00
2022-10-17T13:08:16.405Z,99.30
2022-10-17T13:10:51.559Z,98.90
2022-10-17T13:13:24.583Z,98.90
2022-10-17T13:15:54.050Z,99.00
2022-10-17T13:18:24.094Z,99.30
2022-10-17T13:21:02.061Z,99.90
2022-10-17T13:23:38.269Z,99.90
2022-10-17T13:26:16.479Z,99.90
2022-10-17T13:28:44.942Z,99.90
2022-10-17T13:31:30.994Z,99.90
2022-10-17T13:34:00.459Z,99.70
2022-10-17T13:36:31.484Z,99.90
2022-10-17T13:39:00.972Z,99.90
2022-10-17T13:41:35.779Z,99.90
2022-10-17T13:44:14.938Z,99.90
2022-10-17T13:46:43.911Z,99.90
2022-10-17T13:49:23.241Z,99.90
2022-10-17T13:51:57.190Z,99.90
2022-10-17T13:54:37.471Z,99.90
2022-10-17T13:57:06.719Z,99.90
2022-10-17T13:59:40.202Z,99.90
2022-10-17T14:02:14.718Z,99.90
2022-10-17T14:05:15.243Z,99.90
2022-10-17T14:08:05.424Z,99.90
2022-10-17T14:10:31.734Z,99.90
2022-10-17T14:13:01.266Z,99.90
2022-10-17T14:15:31.161Z,99.90
2022-10-17T14:18:06.721Z,99.90
2022-10-17T14:23:36.134Z,99.90
2022-10-17T14:26:19.725Z,99.90
2022-10-17T14:28:51.043Z,99.90
2022-10-17T14:31:26.436Z,99.90
2022-10-17T14:33:55.654Z,99.90
2022-10-17T14:36:33.814Z,99.90
2022-10-17T14:39:04.406Z,99.90
2022-10-17T14:41:42.922Z,99.90
2022-10-17T14:44:20.525Z,99.90
2022-10-17T14:46:51.077Z,99.90
2022-10-17T14:49:29.209Z,99.90
2022-10-17T14:52:31.471Z,99.90
2022-10-17T14:55:13.577Z,99.90
2022-10-17T14:57:44.316Z,99.90
2022-10-17T15:00:16.712Z,99.90
2022-10-17T15:02:45.685Z,99.90
2022-10-17T15:05:13.969Z,99.90
2022-10-17T15:07:42.123Z,99.90
2022-10-17T15:10:25.923Z,99.90
2022-10-17T15:12:57.550Z,99.90
2022-10-17T15:15:28.257Z,99.90
2022-10-17T15:17:56.737Z,99.90
2022-10-17T15:20:28.226Z,99.90
2022-10-17T15:22:56.806Z,99.90
2022-10-17T15:25:27.213Z,99.90
2022-10-17T15:27:55.724Z,99.90
2022-10-17T15:30:26.850Z,99.90
2022-10-17T15:32:55.397Z,99.90
2022-10-17T15:35:23.987Z,99.90
2022-10-17T15:37:52.273Z,99.90
2022-10-17T15:40:22.143Z,99.90
2022-10-17T15:42:51.705Z,99.90
2022-10-17T15:45:22.665Z,99.90
2022-10-17T15:47:53.551Z,99.90
2022-10-17T15:50:22.698Z,99.90
2022-10-17T15:52:52.204Z,99.90
2022-10-17T15:55:21.109Z,99.90
2022-10-17T15:57:51.153Z,99.90
2022-10-17T16:00:21.926Z,99.90
2022-10-17T16:02:51.115Z,99.90
2022-10-17T16:05:23.240Z,99.90
2022-10-17T16:07:51.447Z,99.90
2022-10-17T16:10:20.509Z,99.90
2022-10-17T16:12:49.896Z,99.90
2022-10-17T16:15:22.734Z,99.90
2022-10-17T16:17:50.856Z,99.90
2022-10-17T16:20:19.578Z,99.90
2022-10-17T16:22:48.559Z,99.90
2022-10-17T16:25:23.450Z,99.90
2022-10-17T16:27:52.945Z,99.90
2022-10-17T16:30:23.367Z,99.90
2022-10-17T16:32:51.701Z,99.90
2022-10-17T16:35:22.861Z,99.90
2022-10-17T16:37:51.202Z,99.90
2022-10-17T16:40:19.515Z,99.90
2022-10-17T16:42:47.537Z,99.90
2022-10-17T16:45:18.627Z,99.90
2022-10-17T16:47:48.820Z,99.90
2022-10-17T16:50:17.362Z,99.90
2022-10-17T16:52:45.369Z,99.90
2022-10-17T16:55:13.414Z,99.90
2022-10-17T17:00:14.266Z,99.90
2022-10-17T17:02:42.235Z,99.90
2022-10-17T17:05:12.067Z,99.90
2022-10-17T17:07:40.972Z,99.90
2022-10-17T17:10:09.876Z,99.90
2022-10-17T17:12:38.072Z,99.90
2022-10-17T17:15:06.477Z,99.90
2022-10-17T17:17:49.663Z,99.90
2022-10-17T17:20:21.696Z,99.90
2022-10-17T17:22:50.751Z,99.90
2022-10-17T17:25:18.788Z,99.90
2022-10-17T17:27:46.794Z,99.90
2022-10-17T17:30:14.810Z,99.90
2022-10-17T17:32:42.850Z,99.90
2022-10-17T17:35:11.084Z,99.90
2022-10-17T17:37:40.443Z,99.90
2022-10-17T17:40:09.530Z,99.90
2022-10-17T17:42:37.788Z,99.90
2022-10-17T17:45:06.701Z,99.90
2022-10-17T17:47:37.001Z,99.90
2022-10-17T17:50:07.694Z,99.90
2022-10-17T17:52:35.699Z,99.90
2022-10-17T17:55:05.522Z,99.90
2022-10-17T17:57:33.526Z,99.90
2022-10-17T18:00:01.545Z,99.90
2022-10-17T18:02:29.826Z,99.90
2022-10-17T18:05:00.735Z,99.90
2022-10-17T18:07:30.352Z,99.90
2022-10-17T18:09:59.799Z,99.90
2022-10-17T18:12:30.277Z,99.90
2022-10-17T18:14:58.445Z,99.90
2022-10-17T18:17:26.506Z,99.90
2022-10-17T18:19:54.518Z,99.90
2022-10-17T18:22:23.597Z,99.90
2022-10-17T18:24:53.820Z,99.90
2022-10-17T18:27:21.824Z,99.90
2022-10-17T18:29:51.694Z,99.90
2022-10-17T18:32:19.999Z,99.90
2022-10-17T18:34:48.016Z,99.90
2022-10-17T18:37:16.081Z,99.90
2022-10-17T18:39:44.944Z,99.90
2022-10-17T18:42:12.948Z,99.90
2022-10-17T18:44:40.992Z,99.90
2022-10-17T18:47:10.700Z,99.90
2022-10-17T18:49:38.691Z,99.90
2022-10-17T18:52:06.759Z,99.90
2022-10-17T18:54:34.965Z,99.90
2022-10-17T18:57:03.406Z,99.90
2022-10-17T18:59:31.455Z,99.90
2022-10-17T19:01:59.558Z,99.90
2022-10-17T19:04:29.162Z,99.90
2022-10-17T19:06:57.330Z,99.90
2022-10-17T19:09:25.378Z,99.90
2022-10-17T19:11:53.406Z,99.90
2022-10-17T19:14:21.445Z,99.90
2022-10-17T19:16:50.898Z,99.90
2022-10-17T19:19:21.720Z,99.90
2022-10-17T19:21:51.830Z,99.90
2022-10-17T19:24:21.619Z,99.90
2022-10-17T19:26:53.241Z,99.90
2022-10-17T19:29:22.914Z,99.90
2022-10-17T19:31:51.158Z,99.90
2022-10-17T19:34:19.586Z,99.90
2022-10-17T19:36:48.444Z,99.90
2022-10-17T19:39:23.301Z,99.90
2022-10-17T19:41:51.327Z,99.90
2022-10-17T19:44:19.805Z,99.90
2022-10-17T19:46:49.173Z,99.90
2022-10-17T19:49:17.718Z,99.90
2022-10-17T19:51:46.039Z,99.90
2022-10-17T19:54:17.111Z,99.90
2022-10-17T19:56:46.550Z,99.90
2022-10-17T19:59:16.683Z,99.90
2022-10-17T20:01:45.604Z,99.90
2022-10-17T20:04:14.268Z,99.90
2022-10-17T20:06:43.103Z,99.90
2022-10-17T20:09:16.577Z,99.90
2022-10-17T20:11:47.296Z,99.90
2022-10-17T20:14:16.201Z,99.90
2022-10-17T20:16:44.811Z,99.90
2022-10-17T20:19:15.188Z,99.90
2022-10-17T20:21:44.324Z,99.90
2022-10-17T20:24:14.529Z,99.90
2022-10-17T20:26:43.379Z,99.90
2022-10-17T20:29:17.214Z,99.90
2022-10-17T20:31:47.099Z,99.90
2022-10-17T20:34:16.989Z,99.90
2022-10-17T20:36:45.591Z,99.90
2022-10-17T20:39:14.953Z,99.90
2022-10-17T20:41:43.385Z,99.90
2022-10-17T20:44:14.653Z,99.90
2022-10-17T20:47:00.803Z,99.90
2022-10-17T20:49:32.981Z,99.90
2022-10-17T20:52:01.817Z,99.90
2022-10-17T20:54:29.985Z,99.90
2022-10-17T20:57:01.079Z,99.90
2022-10-17T20:59:34.842Z,99.90
2022-10-17T21:02:03.309Z,99.90
2022-10-17T21:04:46.029Z,99.90
2022-10-17T21:07:15.055Z,99.90
2022-10-17T21:09:43.095Z,99.90
2022-10-17T21:12:11.127Z,99.90
2022-10-17T21:14:40.505Z,99.90
2022-10-17T21:17:08.530Z,99.90
2022-10-17T21:19:36.524Z,99.90
2022-10-17T21:22:04.572Z,99.90
2022-10-17T21:24:32.805Z,99.90
2022-10-17T21:27:00.863Z,99.90
2022-10-17T21:29:29.053Z,99.90
2022-10-17T21:31:58.425Z,99.90
2022-10-17T21:34:26.531Z,99.90
2022-10-17T21:36:54.776Z,99.90
2022-10-17T21:39:24.816Z,99.90
2022-10-17T21:41:53.671Z,99.90
2022-10-17T21:44:24.529Z,99.90
2022-10-17T21:46:53.342Z,99.90
2022-10-17T21:49:24.399Z,99.90
2022-10-17T21:51:53.065Z,99.90
2022-10-17T21:54:22.874Z,99.90
2022-10-17T21:56:51.744Z,99.90
2022-10-17T21:59:19.736Z,99.90
2022-10-17T22:01:48.144Z,99.90
2022-10-17T22:04:19.040Z,99.90
2022-10-17T22:06:52.538Z,99.90
2022-10-17T22:09:22.883Z,99.90
2022-10-17T22:11:57.637Z,99.90
2022-10-17T22:14:27.425Z,99.90
2022-10-17T22:16:55.739Z,99.90
2022-10-17T22:19:25.367Z,99.90
2022-10-17T22:21:55.369Z,99.90
2022-10-17T22:24:23.913Z,99.90
2022-10-17T22:26:52.331Z,99.90
2022-10-17T22:29:20.780Z,99.90
2022-10-17T22:31:48.913Z,99.90
2022-10-17T22:34:20.699Z,99.90
2022-10-17T22:36:48.941Z,99.90
2022-10-17T22:39:18.641Z,99.90
2022-10-17T22:41:46.639Z,99.90
2022-10-17T22:44:14.692Z,99.90
2022-10-17T22:46:42.710Z,99.90
2022-10-17T22:49:10.770Z,99.90
2022-10-17T22:51:38.773Z,99.90
2022-10-17T22:54:06.803Z,99.90
2022-10-17T22:56:36.452Z,99.90
2022-10-17T22:59:04.759Z,99.90
2022-10-17T23:01:35.553Z,99.90
2022-10-17T23:04:03.600Z,99.90
2022-10-17T23:06:31.621Z,99.90
2022-10-17T23:08:59.806Z,99.90
2022-10-17T23:11:27.847Z,99.90
2022-10-17T23:13:57.310Z,99.90
2022-10-17T23:16:25.324Z,99.90
2022-10-17T23:18:53.318Z,99.90
2022-10-17T23:21:21.397Z,99.90
2022-10-17T23:23:49.446Z,99.90
2022-10-17T23:26:17.494Z,99.90
2022-10-17T23:28:45.557Z,99.90
2022-10-17T23:31:19.074Z,99.90
2022-10-17T23:33:48.438Z,99.90
2022-10-17T23:36:18.411Z,99.90
2022-10-17T23:38:47.414Z,99.90
2022-10-17T23:41:16.139Z,99.90
2022-10-17T23:43:44.689Z,99.90
2022-10-17T23:46:13.137Z,99.90
2022-10-17T23:48:42.583Z,99.90
2022-10-17T23:51:11.628Z,99.90
2022-10-17T23:53:40.378Z,99.90
2022-10-17T23:56:09.959Z,99.90
2022-10-17T23:58:38.626Z,99.90
